DW0307 Weather Reports


Display with metric or nautical units.
time (UTC)temp
F
wind
direction
speed
MPH
gust
MPH
rain 1hr
in
rain 24hr
in
rain mn
in
humidity
%
barometer
mb
20220527023043 42 309 2.0 3.0 0.00 0.00 0.00 87 1018.9
20220527021555 42 229 1.0 4.0 0.00 0.00 0.00 86 1019.0
20220527020118 43 0 0.0 4.0 0.00 0.00 0.00 86 1019.2
20220527014542 44 291 0.0 3.0 0.00 0.00 0.00 86 1019.1
20220527013046 43 0 0.0 4.0 0.00 0.00 0.00 85 1019.1
20220527011549 44 257 1.0 4.0 0.00 0.00 0.00 84 1019.3
20220527010057 45 339 1.0 3.0 0.00 0.00 0.00 84 1019.3
20220527004556 46 0 1.0 5.0 0.00 0.00 0.00 83 1019.3
20220527003059 46 267 2.0 8.0 0.00 0.00 0.00 83 1019.5
20220527001603 47 44 3.0 5.0 0.00 0.00 0.00 84 1019.4
20220527000056 45 0 0.0 4.0 0.00 0.00 0.00 85 1019.6
20220526234600 45 292 1.0 4.0 0.00 0.00 0.00 83 1019.8
20220526233057 46 5 0.0 4.0 0.00 0.00 0.00 83 1019.9
20220526231554 46 252 2.0 7.0 0.00 0.00 0.00 84 1020.0
20220526230058 45 265 1.0 4.0 0.00 0.00 0.00 82 1020.1
20220526224602 45 302 1.0 4.0 0.00 0.00 0.00 83 1020.1
20220526223050 45 265 3.0 6.0 0.00 0.00 0.00 81 1020.1
20220526221558 46 250 2.0 4.0 0.00 0.00 0.00 79 1020.1
20220526220119 47 325 4.0 7.0 0.00 0.00 0.00 78 1020.1
20220526214550 51 247 3.0 7.0 0.00 0.00 0.00 76 1020.1
20220526213054 49 0 0.0 7.0 0.00 0.00 0.00 77 1020.1
20220526211600 49 312 4.0 9.0 0.00 0.00 0.00 75 1020.1
20220526210102 52 329 4.0 10.0 0.00 0.00 0.00 75 1020.0
20220526204541 53 249 7.0 11.0 0.00 0.00 0.00 75 1019.9
20220526203105 53 250 3.0 6.0 0.00 0.00 0.00 76 1019.8
20220526201551 53 293 7.0 12.0 0.00 0.00 0.00 76 1019.8
20220526200058 53 292 8.0 11.0 0.00 0.00 0.00 76 1019.8
20220526194553 54 294 7.0 10.0 0.00 0.00 0.00 75 1019.8
20220526193053 54 284 9.0 11.0 0.00 0.00 0.00 75 1019.8
20220526191550 55 257 9.0 12.0 0.00 0.00 0.00 73 1019.6
20220526190045 56 254 10.0 13.0 0.00 0.00 0.00 72 1019.5
20220526184551 57 254 9.0 13.0 0.00 0.00 0.00 70 1019.4
20220526183059 58 246 9.0 13.0 0.00 0.00 0.00 68 1019.2
20220526181551 59 246 10.0 16.0 0.00 0.00 0.00 67 1019.2
20220526180101 59 248 11.0 18.0 0.00 0.00 0.00 66 1019.3
20220526174554 60 247 11.0 19.0 0.00 0.00 0.00 64 1019.3
20220526173113 61 256 16.0 21.0 0.00 0.00 0.00 62 1019.3
20220526171550 61 225 15.0 21.0 0.00 0.00 0.00 60 1019.3
20220526170054 62 234 10.0 19.0 0.00 0.00 0.00 61 1019.5
20220526164606 62 238 14.0 22.0 0.00 0.00 0.00 60 1019.4
20220526163046 62 229 12.0 22.0 0.00 0.00 0.00 60 1019.4
20220526161553 63 249 14.0 26.0 0.00 0.00 0.00 58 1019.4
20220526160058 63 256 16.0 24.0 0.00 0.00 0.00 58 1019.5
20220526154557 63 242 16.0 26.0 0.00 0.00 0.00 57 1019.3
20220526153056 64 248 18.0 26.0 0.00 0.00 0.00 56 1019.2
20220526151600 65 236 17.0 25.0 0.00 0.00 0.00 55 1019.3
20220526150058 65 229 16.0 28.0 0.00 0.00 0.00 56 1019.4
20220526144552 66 252 18.0 26.0 0.00 0.00 0.00 56 1019.4
20220526143056 65 264 21.0 28.0 0.00 0.00 0.00 55 1019.5
20220526141552 66 238 21.0 26.0 0.00 0.00 0.00 52 1019.5
20220526140049 66 236 21.0 29.0 0.00 0.00 0.00 52 1019.6
20220526134554 66 246 23.0 31.0 0.00 0.00 0.00 51 1019.6
20220526133042 68 235 22.0 28.0 0.00 0.00 0.00 50 1019.5
20220526131551 67 234 19.0 31.0 0.00 0.00 0.00 51 1019.5
20220526130104 69 254 21.0 32.0 0.00 0.00 0.00 49 1019.5
20220526124558 68 229 21.0 29.0 0.00 0.00 0.00 48 1019.7
20220526123048 66 248 23.0 32.0 0.00 0.00 0.00 50 1019.7
20220526121554 67 239 23.0 30.0 0.00 0.00 0.00 49 1019.6
20220526120133 68 244 25.0 32.0 0.00 0.00 0.00 49 1019.7
20220526114554 67 227 26.0 35.0 0.00 0.00 0.00 50 1019.6
20220526113106 67 224 24.0 31.0 0.00 0.00 0.00 50 1019.5
20220526111556 67 257 20.0 32.0 0.00 0.00 0.00 51 1019.7
20220526110054 67 270 22.0 29.0 0.00 0.00 0.00 51 1019.7
20220526104550 66 259 23.0 30.0 0.00 0.20 0.00 48 1019.6
20220526103052 67 259 24.0 34.0 0.00 0.20 0.00 49 1019.7
20220526101606 66 238 21.0 31.0 0.00 0.20 0.00 51 1019.8
20220526100058 66 240 24.0 32.0 0.00 0.20 0.00 50 1019.8
20220526094555 66 260 20.0 28.0 0.00 0.20 0.00 52 1019.7
20220526093047 65 255 22.0 31.0 0.00 0.20 0.00 53 1019.7
20220526091548 65 248 21.0 28.0 0.00 0.20 0.00 55 1019.8
20220526090101 64 231 21.0 27.0 0.00 0.20 0.00 59 1019.8
20220526084546 64 248 22.0 27.0 0.00 0.20 0.00 60 1019.9
20220526083050 64 267 20.0 27.0 0.00 0.20 0.00 63 1019.7
20220526081552 63 252 17.0 28.0 0.00 0.20 0.00 68 1019.9
20220526080047 62 235 19.0 27.0 0.00 0.20 0.00 69 1019.9
20220526074548 61 253 15.0 21.0 0.00 0.20 0.00 71 1019.9
20220526073047 60 234 12.0 18.0 0.00 0.20 0.00 72 1020.0
20220526071603 58 253 12.0 19.0 0.00 0.20 0.00 73 1019.9
20220526070051 57 252 14.0 19.0 0.00 0.20 0.00 74 1019.8
20220526064551 56 257 13.0 17.0 0.00 0.20 0.00 75 1019.9
20220526063043 57 257 10.0 18.0 0.00 0.20 0.00 76 1019.8
20220526061547 56 248 13.0 18.0 0.00 0.20 0.00 76 1020.0
20220526060052 55 248 9.0 13.0 0.00 0.20 0.00 79 1019.7
20220526054542 54 245 4.0 10.0 0.00 0.20 0.00 80 1019.6
20220526053046 53 248 7.0 12.0 0.00 0.20 0.00 84 1019.7
20220526051551 53 278 7.0 10.0 0.00 0.20 0.00 87 1019.5
20220526050052 50 278 8.0 11.0 0.00 0.20 0.00 90 1019.5
20220526044544 47 306 1.0 5.0 0.00 0.20 0.00 91 1019.5
20220526043054 47 309 3.0 9.0 0.00 0.20 0.00 91 1019.6
20220526041547 46 293 5.0 8.0 0.00 0.20 0.00 92 1019.5
20220526040059 45 283 4.0 7.0 0.00 0.20 0.00 92 1019.5
20220526034602 44 281 4.0 7.0 0.00 0.20 0.00 93 1019.4
20220526033058 42 267 2.0 7.0 0.00 0.20 0.00 92 1019.3
20220526031605 42 254 2.0 6.0 0.00 0.20 0.00 91 1019.1
20220526030055 44 285 4.0 8.0 0.00 0.20 0.00 92 1019.2
20220526024548 44 308 3.0 5.0 0.00 0.20 0.00 92 1019.1